createdAt,value
2019-03-04T00:00:42.846Z,2.90
2019-03-04T00:03:17.071Z,2.30
2019-03-04T00:05:47.148Z,2.47
2019-03-04T00:08:15.045Z,2.72
2019-03-04T00:10:43.426Z,2.37
2019-03-04T00:13:11.425Z,3.17
2019-03-04T00:15:39.895Z,2.05
2019-03-04T00:18:08.229Z,2.52
2019-03-04T00:20:38.035Z,2.50
2019-03-04T00:23:07.349Z,2.20
2019-03-04T00:25:35.320Z,2.30
2019-03-04T00:28:03.277Z,2.22
2019-03-04T00:30:31.257Z,2.27
2019-03-04T00:32:59.495Z,2.20
2019-03-04T00:35:27.544Z,2.50
2019-03-04T00:37:55.798Z,2.40
2019-03-04T00:40:23.898Z,2.35
2019-03-04T00:42:53.406Z,2.40
2019-03-04T00:45:21.628Z,2.47
2019-03-04T00:47:49.750Z,2.35
2019-03-04T00:50:19.220Z,2.22
2019-03-04T00:52:47.086Z,2.17
2019-03-04T00:55:15.000Z,3.00
2019-03-04T00:57:43.679Z,2.60
2019-03-04T01:00:15.378Z,2.37
2019-03-04T01:02:44.394Z,2.25
2019-03-04T01:05:17.242Z,2.45
2019-03-04T01:07:45.246Z,2.55
2019-03-04T01:10:13.433Z,3.00
2019-03-04T01:12:41.374Z,2.70
2019-03-04T01:15:10.872Z,2.67
2019-03-04T01:17:38.828Z,2.60
2019-03-04T01:20:07.987Z,3.62
2019-03-04T01:22:35.850Z,2.90
2019-03-04T01:25:11.807Z,2.65
2019-03-04T01:27:39.761Z,3.08
2019-03-04T01:30:10.926Z,2.80
2019-03-04T01:32:40.454Z,3.08
2019-03-04T01:35:08.438Z,3.02
2019-03-04T01:37:37.942Z,2.52
2019-03-04T01:40:06.318Z,2.25
2019-03-04T01:42:34.337Z,2.00
2019-03-04T01:45:02.229Z,2.30
2019-03-04T01:47:30.157Z,2.30
2019-03-04T01:49:58.005Z,2.50
2019-03-04T01:52:26.527Z,2.33
2019-03-04T01:54:54.481Z,2.42
2019-03-04T01:57:22.449Z,3.62
2019-03-04T01:59:53.924Z,2.10
2019-03-04T02:02:22.860Z,2.30
2019-03-04T02:04:50.749Z,2.72
2019-03-04T02:07:18.704Z,2.50
2019-03-04T02:09:46.702Z,2.30
2019-03-04T02:12:14.725Z,2.22
2019-03-04T02:14:42.607Z,2.50
2019-03-04T02:17:10.518Z,2.37
2019-03-04T02:19:38.862Z,1.70
2019-03-04T02:22:08.235Z,2.12
2019-03-04T02:24:38.528Z,3.20
2019-03-04T02:27:06.406Z,2.35
2019-03-04T02:29:35.724Z,2.27
2019-03-04T02:32:06.861Z,1.72
2019-03-04T02:34:35.540Z,2.17
2019-03-04T02:37:03.483Z,2.30
2019-03-04T02:39:31.553Z,2.30
2019-03-04T02:41:59.628Z,2.50
2019-03-04T02:44:30.556Z,1.82
2019-03-04T02:47:00.079Z,2.17
2019-03-04T02:49:29.025Z,2.00
2019-03-04T02:51:56.999Z,2.10
2019-03-04T02:54:24.953Z,1.95
2019-03-04T02:57:00.454Z,2.00
2019-03-04T02:59:28.552Z,1.75
2019-03-04T03:01:56.774Z,3.35
2019-03-04T03:04:25.217Z,1.87
2019-03-04T03:06:53.582Z,1.50
2019-03-04T03:09:23.431Z,1.60
2019-03-04T03:11:53.619Z,1.42
2019-03-04T03:14:21.516Z,1.87
2019-03-04T03:16:51.493Z,1.50
2019-03-04T03:19:19.403Z,1.80
2019-03-04T03:21:47.719Z,1.67
2019-03-04T03:24:15.625Z,1.20
2019-03-04T03:26:44.964Z,1.35
2019-03-04T03:29:14.826Z,1.52
2019-03-04T03:31:42.848Z,1.22
2019-03-04T03:34:10.770Z,1.72
2019-03-04T03:36:40.679Z,1.82
2019-03-04T03:39:09.205Z,1.35
2019-03-04T03:41:38.372Z,1.52
2019-03-04T03:44:07.371Z,1.55
2019-03-04T03:46:37.786Z,1.50
2019-03-04T03:49:07.258Z,1.32
2019-03-04T03:51:35.418Z,1.20
2019-03-04T03:54:03.377Z,1.47
2019-03-04T03:56:32.600Z,1.40
2019-03-04T03:59:03.410Z,1.82
2019-03-04T04:01:31.318Z,1.60
2019-03-04T04:03:59.190Z,1.20
2019-03-04T04:06:27.153Z,1.20
2019-03-04T04:08:55.619Z,1.25
2019-03-04T04:11:27.503Z,1.45
2019-03-04T04:13:55.459Z,1.62
2019-03-04T04:16:23.412Z,1.30
2019-03-04T04:18:51.307Z,1.45
2019-03-04T04:21:21.334Z,1.57
2019-03-04T04:23:52.003Z,1.40
2019-03-04T04:26:22.506Z,1.80
2019-03-04T04:28:56.084Z,1.85
2019-03-04T04:31:24.010Z,1.80
2019-03-04T04:33:51.937Z,1.80
2019-03-04T04:36:19.846Z,1.95
2019-03-04T04:38:49.342Z,1.85
2019-03-04T04:41:17.703Z,1.72
2019-03-04T04:43:46.051Z,1.87
2019-03-04T04:46:14.346Z,1.62
2019-03-04T04:48:42.601Z,2.15
2019-03-04T04:51:10.484Z,1.80
2019-03-04T04:53:39.828Z,1.55
2019-03-04T04:56:07.934Z,1.47
2019-03-04T04:58:35.846Z,1.65
2019-03-04T05:01:04.189Z,2.08
2019-03-04T05:03:33.694Z,2.35
2019-03-04T05:06:03.419Z,1.50
2019-03-04T05:08:31.317Z,1.95
2019-03-04T05:11:00.841Z,1.60
2019-03-04T05:13:30.250Z,1.55
2019-03-04T05:15:58.190Z,1.70
2019-03-04T05:18:28.053Z,1.50
2019-03-04T05:20:56.506Z,1.27
2019-03-04T05:23:25.758Z,1.20
2019-03-04T05:25:53.740Z,1.30
2019-03-04T05:28:24.299Z,1.32
2019-03-04T05:30:53.759Z,1.40
2019-03-04T05:33:26.238Z,1.47
2019-03-04T05:35:54.693Z,1.12
2019-03-04T05:38:32.098Z,1.50
2019-03-04T05:41:00.016Z,1.22
2019-03-04T05:43:27.966Z,1.30
2019-03-04T05:45:57.876Z,1.27
2019-03-04T05:48:25.905Z,1.42
2019-03-04T05:50:54.686Z,1.20
2019-03-04T05:53:24.843Z,1.20
2019-03-04T05:55:52.798Z,1.72
2019-03-04T05:58:24.995Z,1.45
2019-03-04T06:01:11.986Z,1.45
2019-03-04T06:03:39.917Z,1.32
2019-03-04T06:06:07.982Z,1.55
2019-03-04T06:08:37.886Z,1.22
2019-03-04T06:11:06.009Z,1.45
2019-03-04T06:13:41.096Z,1.30
2019-03-04T06:16:11.137Z,2.55
2019-03-04T06:18:39.527Z,1.77
2019-03-04T06:21:07.513Z,1.30
2019-03-04T06:23:36.008Z,1.40
2019-03-04T06:26:06.282Z,1.30
2019-03-04T06:28:34.278Z,1.95
2019-03-04T06:31:02.334Z,1.45
2019-03-04T06:33:30.354Z,2.08
2019-03-04T06:35:58.214Z,2.58
2019-03-04T06:38:26.069Z,1.95
2019-03-04T06:40:53.894Z,1.60
2019-03-04T06:43:21.770Z,5.33
2019-03-04T06:45:50.021Z,1.40
2019-03-04T06:48:17.892Z,1.72
2019-03-04T06:50:52.969Z,3.22
2019-03-04T06:53:29.051Z,1.50
2019-03-04T06:56:02.331Z,1.70
2019-03-04T06:58:30.462Z,1.37
2019-03-04T07:01:17.406Z,1.40
2019-03-04T07:03:48.328Z,1.60
2019-03-04T07:06:16.662Z,4.33
2019-03-04T07:09:05.231Z,1.75
2019-03-04T07:11:34.197Z,1.30
2019-03-04T07:14:02.125Z,1.30
2019-03-04T07:16:32.050Z,1.17
2019-03-04T07:18:59.778Z,1.00
2019-03-04T07:21:27.672Z,1.00
2019-03-04T07:23:55.629Z,1.20
2019-03-04T07:26:23.543Z,1.20
2019-03-04T07:28:51.541Z,4.62
2019-03-04T07:31:19.472Z,1.50
2019-03-04T07:33:47.455Z,1.50
2019-03-04T07:36:15.290Z,1.40
2019-03-04T07:38:44.540Z,1.22
2019-03-04T07:41:12.417Z,1.10
2019-03-04T07:43:40.305Z,1.20
2019-03-04T07:46:08.254Z,1.70
2019-03-04T07:48:36.091Z,1.10
2019-03-04T07:51:09.282Z,1.27
2019-03-04T07:53:46.087Z,1.30
2019-03-04T07:56:06.743Z,1.75
2019-03-04T07:58:34.611Z,1.00
2019-03-04T08:01:02.487Z,1.00
2019-03-04T08:03:30.346Z,1.00
2019-03-04T08:05:58.210Z,1.40
2019-03-04T08:08:26.138Z,1.07
2019-03-04T08:11:13.107Z,1.00
2019-03-04T08:13:45.890Z,0.90
2019-03-04T08:16:13.761Z,1.05
2019-03-04T08:18:41.666Z,1.37
2019-03-04T08:21:09.510Z,1.27
2019-03-04T08:23:37.379Z,1.00
2019-03-04T08:26:05.778Z,1.55
2019-03-04T08:28:33.636Z,1.07
2019-03-04T08:31:01.572Z,1.40
2019-03-04T08:33:29.506Z,1.50
2019-03-04T08:35:58.540Z,1.12
2019-03-04T08:38:26.394Z,1.40
2019-03-04T08:40:54.277Z,1.50
2019-03-04T08:43:22.185Z,1.42
2019-03-04T08:45:49.994Z,1.20
2019-03-04T08:48:17.928Z,1.10
2019-03-04T08:50:45.966Z,2.25
2019-03-04T08:53:13.980Z,1.52
2019-03-04T08:55:41.878Z,1.60
2019-03-04T08:58:09.778Z,1.25
2019-03-04T09:00:38.146Z,1.30
2019-03-04T09:03:06.073Z,1.40
2019-03-04T09:05:33.938Z,1.20
2019-03-04T09:08:02.162Z,1.20
2019-03-04T09:10:30.345Z,2.45
2019-03-04T09:12:58.201Z,1.35
2019-03-04T09:15:26.059Z,1.55
2019-03-04T09:17:54.080Z,1.42
2019-03-04T09:20:22.444Z,2.10
2019-03-04T09:22:50.600Z,1.12
2019-03-04T09:25:30.719Z,1.40
2019-03-04T09:27:58.514Z,1.40
2019-03-04T09:30:26.378Z,1.00
2019-03-04T09:32:54.356Z,1.65
2019-03-04T09:35:23.401Z,1.25
2019-03-04T09:37:51.418Z,1.10
2019-03-04T09:40:19.322Z,1.32
2019-03-04T09:42:47.189Z,1.05
2019-03-04T09:45:15.224Z,2.35
2019-03-04T09:47:43.107Z,1.50
2019-03-04T09:50:12.513Z,1.55
2019-03-04T09:52:40.942Z,3.45
2019-03-04T09:55:09.335Z,1.32
2019-03-04T09:57:37.185Z,1.80
2019-03-04T10:00:06.584Z,2.90
2019-03-04T10:02:37.922Z,1.30
2019-03-04T10:05:28.155Z,1.20
2019-03-04T10:08:05.563Z,1.60
2019-03-04T10:10:43.639Z,1.67
2019-03-04T10:13:39.862Z,1.57
2019-03-04T10:16:28.909Z,1.20
2019-03-04T10:19:20.322Z,1.30
2019-03-04T10:22:10.198Z,2.08
2019-03-04T10:24:40.251Z,1.40
2019-03-04T10:27:25.866Z,1.82
2019-03-04T10:30:31.619Z,1.50
2019-03-04T10:33:13.463Z,1.47
2019-03-04T10:35:50.434Z,1.65
2019-03-04T10:38:39.520Z,2.08
2019-03-04T10:41:31.129Z,1.60
2019-03-04T10:44:17.731Z,1.70
2019-03-04T10:47:06.309Z,2.05
2019-03-04T10:49:36.664Z,1.80
2019-03-04T10:52:05.388Z,1.95
2019-03-04T10:54:33.941Z,2.40
2019-03-04T10:57:03.558Z,1.90
2019-03-04T10:59:36.587Z,1.65
2019-03-04T11:02:05.067Z,1.50
2019-03-04T11:04:34.228Z,1.90
2019-03-04T11:07:06.731Z,1.70
2019-03-04T11:09:36.655Z,1.52
2019-03-04T11:12:07.673Z,1.72
2019-03-04T11:14:36.009Z,2.65
2019-03-04T11:17:03.944Z,1.47
2019-03-04T11:19:32.942Z,1.75
2019-03-04T11:22:02.509Z,1.40
2019-03-04T11:24:30.651Z,1.45
2019-03-04T11:26:58.619Z,2.40
2019-03-04T11:29:27.315Z,2.12
2019-03-04T11:31:55.186Z,2.10
2019-03-04T11:34:23.285Z,1.70
2019-03-04T11:36:55.680Z,1.67
2019-03-04T11:39:45.917Z,1.75
2019-03-04T11:42:14.245Z,2.00
2019-03-04T11:44:42.381Z,2.30
2019-03-04T11:47:10.603Z,2.15
2019-03-04T11:49:38.683Z,2.17
2019-03-04T11:52:12.758Z,1.95
2019-03-04T11:54:40.738Z,2.65
2019-03-04T11:57:08.663Z,1.90
2019-03-04T11:59:36.725Z,3.25
2019-03-04T12:02:10.035Z,2.15
2019-03-04T12:04:46.221Z,2.35
2019-03-04T12:07:16.730Z,1.50
2019-03-04T12:09:47.098Z,1.00
2019-03-04T12:12:19.422Z,1.12
2019-03-04T12:14:52.848Z,1.07
2019-03-04T12:20:19.430Z,1.00
2019-03-04T12:22:47.430Z,0.90
2019-03-04T12:25:17.175Z,1.10
2019-03-04T12:27:47.182Z,0.93
2019-03-04T12:30:16.366Z,1.32
2019-03-04T12:32:49.197Z,1.10
2019-03-04T12:35:20.445Z,1.30
2019-03-04T12:37:50.416Z,1.30
2019-03-04T12:40:21.292Z,1.30
2019-03-04T12:42:51.210Z,1.10
2019-03-04T12:45:19.573Z,1.10
2019-03-04T12:47:47.973Z,0.90
2019-03-04T12:50:17.515Z,1.20
2019-03-04T12:52:45.831Z,1.17
2019-03-04T12:55:13.984Z,1.05
2019-03-04T12:57:43.650Z,0.98
2019-03-04T13:00:16.960Z,1.05
2019-03-04T13:02:57.515Z,1.20
2019-03-04T13:05:22.308Z,2.25
2019-03-04T13:07:50.297Z,1.50
2019-03-04T13:10:18.580Z,1.60
2019-03-04T13:12:46.506Z,1.72
2019-03-04T13:15:18.234Z,3.65
2019-03-04T13:17:46.299Z,1.50
2019-03-04T13:20:14.634Z,1.90
2019-03-04T13:22:42.529Z,1.60
2019-03-04T13:25:10.452Z,1.20
2019-03-04T13:27:38.347Z,1.57
2019-03-04T13:30:07.020Z,2.42
2019-03-04T13:32:34.916Z,4.03
2019-03-04T13:35:02.742Z,2.40
2019-03-04T13:37:30.608Z,2.00
2019-03-04T13:39:58.462Z,1.85
2019-03-04T13:42:26.326Z,2.05
2019-03-04T13:44:54.210Z,1.90
2019-03-04T13:47:22.320Z,1.70
2019-03-04T13:49:50.178Z,2.20
2019-03-04T13:52:18.085Z,1.95
2019-03-04T13:54:45.973Z,2.35
2019-03-04T13:57:13.834Z,2.75
2019-03-04T13:59:41.756Z,2.10
2019-03-04T14:02:09.665Z,2.50
2019-03-04T14:04:37.571Z,2.50
2019-03-04T14:07:05.623Z,2.55
2019-03-04T14:09:33.503Z,2.25
2019-03-04T14:12:01.446Z,2.60
2019-03-04T14:14:29.374Z,3.08
2019-03-04T14:16:57.235Z,2.20
2019-03-04T14:19:25.455Z,2.25
2019-03-04T14:21:53.299Z,1.95
2019-03-04T14:24:21.166Z,2.50
2019-03-04T14:26:49.027Z,1.90
2019-03-04T14:29:16.898Z,2.20
2019-03-04T14:31:44.747Z,2.22
2019-03-04T14:34:12.642Z,1.80
2019-03-04T14:36:40.519Z,3.25
2019-03-04T14:39:12.889Z,2.17
2019-03-04T14:41:40.794Z,1.85
2019-03-04T14:44:08.694Z,2.10
2019-03-04T14:46:36.700Z,1.70
2019-03-04T14:49:04.632Z,2.62
2019-03-04T14:51:32.506Z,2.27
2019-03-04T14:54:00.338Z,2.00
2019-03-04T14:56:28.532Z,1.92
2019-03-04T14:59:10.454Z,2.17
2019-03-04T15:01:26.079Z,2.15
2019-03-04T15:03:54.120Z,2.08
2019-03-04T15:06:22.006Z,1.95
2019-03-04T15:08:49.898Z,1.92
2019-03-04T15:11:17.811Z,2.10
2019-03-04T15:13:46.156Z,2.60
2019-03-04T15:16:14.042Z,1.82
2019-03-04T15:18:41.937Z,1.90
2019-03-04T15:21:09.822Z,2.10
2019-03-04T15:23:37.657Z,2.45
2019-03-04T15:26:06.940Z,1.98
2019-03-04T15:28:34.773Z,2.12
2019-03-04T15:31:02.772Z,2.17
2019-03-04T15:33:30.984Z,1.62
2019-03-04T15:35:58.859Z,1.75
2019-03-04T15:38:26.757Z,1.90
2019-03-04T15:40:54.635Z,1.80
2019-03-04T15:43:22.531Z,2.00
2019-03-04T15:45:51.631Z,2.02
2019-03-04T15:48:20.521Z,2.10
2019-03-04T15:50:48.389Z,2.25
2019-03-04T15:53:16.301Z,1.65
2019-03-04T15:55:44.226Z,2.22
2019-03-04T15:58:13.501Z,2.30
2019-03-04T16:00:42.053Z,2.02
2019-03-04T16:03:10.044Z,2.70
2019-03-04T16:05:37.934Z,2.22
2019-03-04T16:08:07.809Z,1.98
2019-03-04T16:10:37.595Z,2.20
2019-03-04T16:13:05.961Z,1.50
2019-03-04T16:15:34.676Z,2.50
2019-03-04T16:18:02.661Z,2.60
2019-03-04T16:20:30.576Z,2.10
2019-03-04T16:22:58.499Z,2.72
2019-03-04T16:25:26.407Z,2.65
2019-03-04T16:28:01.753Z,1.70
2019-03-04T16:30:29.644Z,2.30
2019-03-04T16:32:57.523Z,2.72
2019-03-04T16:35:25.438Z,2.20
2019-03-04T16:37:53.350Z,4.75
2019-03-04T16:40:21.262Z,3.45
2019-03-04T16:42:49.162Z,2.90
2019-03-04T16:45:17.111Z,2.20
2019-03-04T16:47:45.087Z,2.40
2019-03-04T16:50:13.273Z,2.50
2019-03-04T16:52:41.162Z,2.08
2019-03-04T16:55:10.098Z,2.72
2019-03-04T16:57:38.124Z,2.50
2019-03-04T17:00:06.794Z,2.20
2019-03-04T17:02:34.749Z,2.50
2019-03-04T17:05:02.657Z,2.62
2019-03-04T17:07:30.597Z,2.22
2019-03-04T17:09:58.487Z,2.00
2019-03-04T17:12:26.340Z,2.95
2019-03-04T17:14:54.226Z,2.75
2019-03-04T17:17:22.080Z,3.65
2019-03-04T17:19:49.974Z,2.45
2019-03-04T17:22:17.882Z,2.12
2019-03-04T17:24:45.766Z,1.82
2019-03-04T17:27:13.797Z,2.50
2019-03-04T17:29:41.639Z,3.77
2019-03-04T17:32:09.533Z,2.60
2019-03-04T17:34:37.684Z,1.85
2019-03-04T17:37:05.825Z,2.00
2019-03-04T17:39:34.062Z,2.65
2019-03-04T17:42:02.071Z,1.55
2019-03-04T17:44:29.936Z,1.87
2019-03-04T17:46:57.830Z,1.70
2019-03-04T17:49:25.748Z,2.35
2019-03-04T17:51:53.613Z,2.58
2019-03-04T17:54:21.508Z,2.33
2019-03-04T17:56:49.395Z,1.65
2019-03-04T17:59:17.340Z,2.40
2019-03-04T18:01:46.607Z,1.80
2019-03-04T18:04:19.262Z,1.87
2019-03-04T18:06:49.898Z,2.08
2019-03-04T18:09:17.807Z,2.12
2019-03-04T18:11:45.773Z,2.10
2019-03-04T18:14:16.030Z,2.55
2019-03-04T18:16:46.309Z,2.12
2019-03-04T18:19:16.382Z,1.90
2019-03-04T18:21:46.382Z,1.98
2019-03-04T18:24:16.385Z,2.55
2019-03-04T18:26:50.594Z,1.60
2019-03-04T18:29:21.617Z,1.90
2019-03-04T18:32:01.197Z,2.10
2019-03-04T18:34:38.508Z,1.80
2019-03-04T18:37:12.537Z,2.20
2019-03-04T18:39:59.579Z,1.67
2019-03-04T18:42:47.303Z,2.85
2019-03-04T18:45:19.489Z,2.30
2019-03-04T18:48:08.923Z,1.95
2019-03-04T18:50:44.606Z,3.90
2019-03-04T18:53:13.170Z,2.40
2019-03-04T18:55:43.900Z,1.90
2019-03-04T18:58:12.271Z,2.33
2019-03-04T19:00:40.680Z,2.58
2019-03-04T19:03:11.004Z,2.50
2019-03-04T19:05:38.965Z,2.52
2019-03-04T19:08:10.213Z,2.47
2019-03-04T19:10:41.050Z,2.15
2019-03-04T19:13:09.045Z,2.30
2019-03-04T19:15:37.440Z,4.62
2019-03-04T19:18:06.625Z,2.58
2019-03-04T19:20:37.045Z,2.52
2019-03-04T19:23:05.359Z,2.12
2019-03-04T19:25:34.412Z,2.25
2019-03-04T19:28:02.339Z,3.22
2019-03-04T19:30:30.348Z,2.10
2019-03-04T19:32:58.286Z,2.40
2019-03-04T19:35:29.887Z,3.10
2019-03-04T19:37:58.853Z,2.33
2019-03-04T19:40:26.826Z,2.30
2019-03-04T19:42:56.277Z,2.60
2019-03-04T19:45:24.300Z,3.45
2019-03-04T19:47:52.362Z,2.80
2019-03-04T19:50:20.741Z,2.50
2019-03-04T19:52:53.096Z,6.45
2019-03-04T19:55:20.965Z,2.75
2019-03-04T19:57:49.431Z,2.90
2019-03-04T20:00:19.500Z,2.10
2019-03-04T20:02:50.936Z,2.50
2019-03-04T20:05:23.122Z,2.15
2019-03-04T20:07:55.779Z,2.85
2019-03-04T20:10:25.192Z,2.10
2019-03-04T20:12:55.889Z,2.12
2019-03-04T20:15:24.973Z,2.45
2019-03-04T20:17:56.666Z,2.33
2019-03-04T20:20:24.974Z,2.47
2019-03-04T20:22:57.236Z,1.90
2019-03-04T20:25:27.502Z,2.22
2019-03-04T20:28:03.129Z,2.80
2019-03-04T20:30:31.073Z,2.05
2019-03-04T20:33:03.966Z,2.30
2019-03-04T20:35:34.110Z,2.67
2019-03-04T20:38:02.700Z,2.30
2019-03-04T20:40:42.484Z,2.15
2019-03-04T20:43:04.329Z,2.20
2019-03-04T20:45:32.882Z,1.80
2019-03-04T20:48:01.337Z,1.90
2019-03-04T20:50:31.048Z,2.30
2019-03-04T20:53:01.873Z,2.02
2019-03-04T20:55:37.924Z,2.20
2019-03-04T20:58:06.135Z,2.12
2019-03-04T21:00:34.555Z,1.90
2019-03-04T21:03:04.940Z,2.10
2019-03-04T21:05:33.050Z,2.15
2019-03-04T21:08:02.219Z,1.95
2019-03-04T21:10:34.758Z,2.00
2019-03-04T21:13:08.663Z,2.15
2019-03-04T21:15:36.579Z,1.85
2019-03-04T21:18:06.134Z,2.62
2019-03-04T21:20:39.142Z,1.98
2019-03-04T21:23:09.137Z,2.72
2019-03-04T21:25:39.261Z,1.77
2019-03-04T21:28:12.505Z,2.50
2019-03-04T21:31:22.015Z,1.57
2019-03-04T21:33:54.500Z,1.82
2019-03-04T21:36:44.958Z,1.70
2019-03-04T21:39:14.644Z,1.70
2019-03-04T21:42:00.597Z,1.82
2019-03-04T21:45:00.781Z,1.80
2019-03-04T21:47:40.785Z,1.75
2019-03-04T21:50:12.066Z,2.47
2019-03-04T21:52:51.589Z,1.95
2019-03-04T21:55:25.057Z,2.40
2019-03-04T21:57:54.387Z,1.98
2019-03-04T22:00:28.097Z,1.65
2019-03-04T22:03:04.936Z,1.87
2019-03-04T22:05:34.734Z,2.15
2019-03-04T22:08:02.796Z,1.75
2019-03-04T22:10:32.048Z,1.72
2019-03-04T22:13:01.498Z,2.20
2019-03-04T22:15:29.493Z,2.05
2019-03-04T22:17:59.163Z,2.65
2019-03-04T22:20:27.452Z,2.10
2019-03-04T22:22:55.807Z,1.98
2019-03-04T22:25:26.654Z,3.15
2019-03-04T22:28:02.296Z,2.65
2019-03-04T22:30:30.419Z,2.87
2019-03-04T22:33:01.106Z,3.67
2019-03-04T22:35:29.620Z,3.87
2019-03-04T22:37:57.903Z,3.60
2019-03-04T22:40:27.295Z,3.90
2019-03-04T22:42:58.308Z,3.58
2019-03-04T22:45:26.778Z,2.65
2019-03-04T22:47:57.225Z,2.70
2019-03-04T22:50:46.128Z,3.05
2019-03-04T22:53:18.240Z,3.10
2019-03-04T22:55:47.580Z,3.10
2019-03-04T22:58:15.579Z,3.30
2019-03-04T23:01:32.488Z,3.67
2019-03-04T23:04:03.562Z,4.25
2019-03-04T23:06:34.998Z,4.65
2019-03-04T23:09:04.779Z,4.67
2019-03-04T23:11:33.487Z,4.65
2019-03-04T23:14:04.809Z,5.30
2019-03-04T23:16:33.275Z,5.15
2019-03-04T23:19:04.689Z,4.85
2019-03-04T23:21:33.798Z,5.10
2019-03-04T23:24:02.858Z,6.35
2019-03-04T23:26:33.226Z,6.15
2019-03-04T23:29:01.249Z,6.05
2019-03-04T23:31:32.510Z,7.42
2019-03-04T23:34:00.541Z,6.30
2019-03-04T23:36:28.434Z,7.05
2019-03-04T23:38:57.430Z,6.30
2019-03-04T23:41:26.879Z,6.10
2019-03-04T23:43:56.201Z,7.08
2019-03-04T23:46:24.225Z,5.80
2019-03-04T23:48:54.353Z,6.25
2019-03-04T23:51:23.983Z,7.00
2019-03-04T23:53:54.862Z,6.92
2019-03-04T23:56:23.148Z,7.37
2019-03-04T23:58:52.626Z,6.53
